createdAt,value
2018-09-01T00:02:21.069Z,13.11
2018-09-01T00:03:21.350Z,13.16
2018-09-01T00:04:21.035Z,13.16
2018-09-01T00:05:20.952Z,13.17
2018-09-01T00:06:21.001Z,13.17
2018-09-01T00:07:20.939Z,13.13
2018-09-01T00:08:20.901Z,13.04
2018-09-01T00:09:20.883Z,13.05
2018-09-01T00:10:21.168Z,12.99
2018-09-01T00:12:20.944Z,13.04
2018-09-01T00:14:20.803Z,13.02
2018-09-01T00:15:20.782Z,12.88
2018-09-01T00:16:21.069Z,12.90
2018-09-01T00:17:20.752Z,12.86
2018-09-01T00:18:20.783Z,12.88
2018-09-01T00:19:20.718Z,12.84
2018-09-01T00:20:20.700Z,12.87
2018-09-01T00:21:20.692Z,12.88
2018-09-01T00:22:21.071Z,12.81
2018-09-01T00:23:20.660Z,12.84
2018-09-01T00:24:20.736Z,12.88
2018-09-01T00:25:20.622Z,12.84
2018-09-01T00:26:20.603Z,12.86
2018-09-01T00:27:20.587Z,12.84
2018-09-01T00:28:20.875Z,12.84
2018-09-01T00:29:20.561Z,12.86
2018-09-01T00:30:20.538Z,12.83
2018-09-01T00:31:20.522Z,12.86
2018-09-01T00:32:20.503Z,12.86
2018-09-01T00:33:20.486Z,12.91
2018-09-01T00:34:20.538Z,12.96
2018-09-01T00:35:20.838Z,12.91
2018-09-01T00:36:20.504Z,12.90
2018-09-01T00:37:20.485Z,12.87
2018-09-01T00:38:20.469Z,12.87
2018-09-01T00:39:20.453Z,12.96
2018-09-01T00:40:20.436Z,12.96
2018-09-01T00:41:20.424Z,12.91
2018-09-01T00:42:20.803Z,12.91
2018-09-01T00:43:20.313Z,12.91
2018-09-01T00:44:20.308Z,12.96
2018-09-01T00:45:20.284Z,12.91
2018-09-01T00:46:20.267Z,12.99
2018-09-01T00:47:20.254Z,12.99
2018-09-01T00:48:20.290Z,12.99
2018-09-01T00:49:20.623Z,12.96
2018-09-01T00:50:20.202Z,13.01
2018-09-01T00:51:20.184Z,12.98
2018-09-01T00:52:20.164Z,13.01
2018-09-01T00:53:20.149Z,12.88
2018-09-01T00:54:20.243Z,12.98
2018-09-01T00:55:20.120Z,12.88
2018-09-01T00:56:20.504Z,12.98
2018-09-01T00:57:20.085Z,12.99
2018-09-01T00:58:20.123Z,12.98
2018-09-01T00:59:20.047Z,12.96
2018-09-01T01:00:20.033Z,12.86
2018-09-01T01:01:20.118Z,12.88
2018-09-01T01:02:20.000Z,12.91
2018-09-01T01:03:20.293Z,12.91
2018-09-01T01:04:20.113Z,12.87
2018-09-01T01:06:19.944Z,12.73
2018-09-01T01:07:19.925Z,12.77
2018-09-01T01:08:19.902Z,12.72
2018-09-01T01:09:19.893Z,12.71
2018-09-01T01:10:20.423Z,12.72
2018-09-01T01:11:19.852Z,12.72
2018-09-01T01:12:19.837Z,12.72
2018-09-01T01:13:19.869Z,12.72
2018-09-01T01:14:19.804Z,12.68
2018-09-01T01:15:19.781Z,12.73
2018-09-01T01:16:20.117Z,12.62
2018-09-01T01:17:19.750Z,12.66
2018-09-01T01:18:19.733Z,12.58
2018-09-01T01:19:19.716Z,12.51
2018-09-01T01:20:19.698Z,12.61
2018-09-01T01:21:19.682Z,12.55
2018-09-01T01:22:20.024Z,12.50
2018-09-01T01:23:19.643Z,12.51
2018-09-01T01:24:19.634Z,12.55
2018-09-01T01:26:19.665Z,12.46
2018-09-01T01:27:19.582Z,12.50
2018-09-01T01:28:19.915Z,12.43
2018-09-01T01:29:19.629Z,12.40
2018-09-01T01:31:19.621Z,12.30
2018-09-01T01:32:19.499Z,12.22
2018-09-01T01:33:19.489Z,12.22
2018-09-01T01:34:19.812Z,12.17
2018-09-01T01:35:19.519Z,12.13
2018-09-01T01:36:19.507Z,12.11
2018-09-01T01:37:19.493Z,12.08
2018-09-01T01:38:19.461Z,12.18
2018-09-01T01:39:19.379Z,12.10
2018-09-01T01:40:19.675Z,12.18
2018-09-01T01:41:19.351Z,12.15
2018-09-01T01:42:19.328Z,12.15
2018-09-01T01:43:19.313Z,12.21
2018-09-01T01:45:19.280Z,12.22
2018-09-01T01:46:19.360Z,12.21
2018-09-01T01:47:19.546Z,12.22
2018-09-01T01:48:19.230Z,12.21
2018-09-01T01:49:19.314Z,12.23
2018-09-01T01:50:19.194Z,12.07
2018-09-01T01:51:19.176Z,12.04
2018-09-01T01:52:19.211Z,12.08
2018-09-01T01:53:19.143Z,11.99
2018-09-01T01:54:19.426Z,12.00
2018-09-01T01:55:19.110Z,11.96
2018-09-01T01:56:19.090Z,11.95
2018-09-01T01:57:19.073Z,12.00
2018-09-01T01:58:19.056Z,11.91
2018-09-01T01:59:19.039Z,11.91
2018-09-01T02:00:19.109Z,11.89
2018-09-01T02:01:19.388Z,11.93
2018-09-01T02:02:19.070Z,11.87
2018-09-01T02:03:19.035Z,11.95
2018-09-01T02:04:19.136Z,11.91
2018-09-01T02:05:18.937Z,11.82
2018-09-01T02:06:18.919Z,11.91
2018-09-01T02:07:18.902Z,11.89
2018-09-01T02:10:19.200Z,11.77
2018-09-01T02:11:18.834Z,11.87
2018-09-01T02:12:18.817Z,11.89
2018-09-01T02:13:18.798Z,11.88
2018-09-01T02:14:18.779Z,11.77
2018-09-01T02:15:18.771Z,11.82
2018-09-01T02:16:18.746Z,11.79
2018-09-01T02:17:19.078Z,11.85
2018-09-01T02:18:18.711Z,11.79
2018-09-01T02:19:18.691Z,11.79
2018-09-01T02:20:18.741Z,11.82
2018-09-01T02:21:18.659Z,11.80
2018-09-01T02:22:18.641Z,11.82
2018-09-01T02:23:18.972Z,11.87
2018-09-01T02:24:18.610Z,11.80
2018-09-01T02:25:18.642Z,11.74
2018-09-01T02:26:18.575Z,11.74
2018-09-01T02:27:18.557Z,11.71
2018-09-01T02:28:18.540Z,11.76
2018-09-01T02:30:18.926Z,11.58
2018-09-01T02:31:18.842Z,11.59
2018-09-01T02:32:18.574Z,11.49
2018-09-01T02:33:18.564Z,11.41
2018-09-01T02:34:18.531Z,11.43
2018-09-01T02:35:18.418Z,11.45
2018-09-01T02:36:18.702Z,11.45
2018-09-01T02:37:18.442Z,11.41
2018-09-01T02:40:18.333Z,11.41
2018-09-01T02:41:18.311Z,11.46
2018-09-01T02:42:18.599Z,11.45
2018-09-01T02:43:18.437Z,11.43
2018-09-01T02:44:18.280Z,11.43
2018-09-01T02:45:18.244Z,11.43
2018-09-01T02:46:18.226Z,11.45
2018-09-01T02:47:18.206Z,11.45
2018-09-01T02:48:18.590Z,11.43
2018-09-01T02:49:18.471Z,11.54
2018-09-01T02:50:18.271Z,11.49
2018-09-01T02:51:18.144Z,11.52
2018-09-01T02:52:18.119Z,11.49
2018-09-01T02:53:18.108Z,11.41
2018-09-01T02:54:18.096Z,11.45
2018-09-01T02:55:18.374Z,11.40
2018-09-01T02:56:18.101Z,11.40
2018-09-01T02:57:18.034Z,11.45
2018-09-01T02:58:18.015Z,11.37
2018-09-01T02:59:17.998Z,11.38
2018-09-01T03:00:17.980Z,11.41
2018-09-01T03:01:18.028Z,11.49
2018-09-01T03:02:18.311Z,11.52
2018-09-01T03:03:17.995Z,11.49
2018-09-01T03:04:17.993Z,11.49
2018-09-01T03:05:17.957Z,11.52
2018-09-01T03:06:18.072Z,11.54
2018-09-01T03:07:17.859Z,11.54
2018-09-01T03:08:17.840Z,11.56
2018-09-01T03:09:18.128Z,11.58
2018-09-01T03:10:17.812Z,11.55
2018-09-01T03:11:17.782Z,11.51
2018-09-01T03:12:17.845Z,11.45
2018-09-01T03:13:17.822Z,11.54
2018-09-01T03:14:17.796Z,11.54
2018-09-01T03:15:17.780Z,11.45
2018-09-01T03:16:18.012Z,11.51
2018-09-01T03:17:17.747Z,11.55
2018-09-01T03:18:17.703Z,11.48
2018-09-01T03:20:17.628Z,11.51
2018-09-01T03:21:17.908Z,11.45
2018-09-01T03:22:17.612Z,11.45
2018-09-01T03:23:17.873Z,11.40
2018-09-01T03:24:17.854Z,11.38
2018-09-01T03:26:17.525Z,11.34
2018-09-01T03:27:18.722Z,11.37
2018-09-01T03:29:17.488Z,11.33
2018-09-01T03:30:17.802Z,11.34
2018-09-01T03:31:17.431Z,11.36
2018-09-01T03:32:17.416Z,11.36
2018-09-01T03:33:17.400Z,11.33
2018-09-01T03:34:17.381Z,11.36
2018-09-01T03:35:17.428Z,11.20
2018-09-01T03:38:17.693Z,11.33
2018-09-01T03:39:17.385Z,11.27
2018-09-01T03:40:17.268Z,11.25
2018-09-01T03:41:17.255Z,11.30
2018-09-01T03:42:17.291Z,11.30
2018-09-01T03:43:17.217Z,11.31
2018-09-01T03:45:17.492Z,11.28
2018-09-01T03:47:17.400Z,11.34
2018-09-01T03:48:17.130Z,11.28
2018-09-01T03:49:17.156Z,11.25
2018-09-01T03:50:17.092Z,11.22
2018-09-01T03:51:17.447Z,11.20
2018-09-01T03:52:17.131Z,11.30
2018-09-01T03:53:17.108Z,11.18
2018-09-01T03:54:17.092Z,11.16
2018-09-01T03:55:17.073Z,11.23
2018-09-01T03:56:16.988Z,11.22
2018-09-01T03:57:17.271Z,11.19
2018-09-01T03:58:16.956Z,11.20
2018-09-01T03:59:17.085Z,11.19
2018-09-01T04:01:17.101Z,11.19
2018-09-01T04:03:17.477Z,11.15
2018-09-01T04:04:17.151Z,11.13
2018-09-01T04:07:16.910Z,11.09
2018-09-01T04:09:16.829Z,11.11
2018-09-01T04:10:16.805Z,11.12
2018-09-01T04:11:17.028Z,11.09
2018-09-01T04:12:16.793Z,11.08
2018-09-01T04:13:17.004Z,11.03
2018-09-01T04:14:16.667Z,11.08
2018-09-01T04:15:16.647Z,11.00
2018-09-01T04:16:17.087Z,10.95
2018-09-01T04:17:16.614Z,11.01
2018-09-01T04:18:16.953Z,10.98
2018-09-01T04:19:16.583Z,10.95
2018-09-01T04:21:16.599Z,10.97
2018-09-01T04:22:16.534Z,10.97
2018-09-01T04:23:16.507Z,10.93
2018-09-01T04:24:16.489Z,11.00
2018-09-01T04:25:16.770Z,10.98
2018-09-01T04:26:16.456Z,11.04
2018-09-01T04:27:16.483Z,11.01
2018-09-01T04:28:16.516Z,11.03
2018-09-01T04:29:16.395Z,10.97
2018-09-01T04:30:16.382Z,10.95
2018-09-01T04:31:16.363Z,10.95
2018-09-01T04:32:16.646Z,10.93
2018-09-01T04:33:16.381Z,10.87
2018-09-01T04:34:16.309Z,10.85
2018-09-01T04:35:16.287Z,10.91
2018-09-01T04:36:16.270Z,10.83
2018-09-01T04:37:16.253Z,10.86
2018-09-01T04:38:16.270Z,10.82
2018-09-01T04:39:16.514Z,10.94
2018-09-01T04:40:16.195Z,10.90
2018-09-01T04:41:16.179Z,10.83
2018-09-01T04:42:16.164Z,10.94
2018-09-01T04:43:16.243Z,10.85
2018-09-01T04:44:16.123Z,10.82
2018-09-01T04:45:16.611Z,10.85
2018-09-01T04:46:16.102Z,10.87
2018-09-01T04:47:16.074Z,10.80
2018-09-01T04:48:16.055Z,10.86
2018-09-01T04:49:16.038Z,10.91
2018-09-01T04:50:16.028Z,10.83
2018-09-01T04:51:16.301Z,10.85
2018-09-01T04:52:15.985Z,10.80
2018-09-01T04:53:15.967Z,10.83
2018-09-01T04:54:15.997Z,10.86
2018-09-01T04:55:15.931Z,10.90
2018-09-01T04:57:15.897Z,10.90
2018-09-01T04:58:16.225Z,10.79
2018-09-01T04:59:15.858Z,10.76
2018-09-01T05:00:15.962Z,10.85
2018-09-01T05:01:15.856Z,10.73
2018-09-01T05:02:15.803Z,10.80
2018-09-01T05:03:15.784Z,10.78
2018-09-01T05:05:16.054Z,10.79
2018-09-01T05:06:15.731Z,10.78
2018-09-01T05:07:15.714Z,10.76
2018-09-01T05:08:15.709Z,10.79
2018-09-01T05:09:15.688Z,10.83
2018-09-01T05:10:15.658Z,10.83
2018-09-01T05:11:16.003Z,10.75
2018-09-01T05:12:15.622Z,10.78
2018-09-01T05:13:15.606Z,10.65
2018-09-01T05:14:15.685Z,10.57
2018-09-01T05:15:15.669Z,10.57
2018-09-01T05:16:15.556Z,10.58
2018-09-01T05:17:15.532Z,10.61
2018-09-01T05:18:15.862Z,10.48
2018-09-01T05:19:15.498Z,10.48
2018-09-01T05:20:15.480Z,10.54
2018-09-01T05:21:15.461Z,10.48
2018-09-01T05:22:15.444Z,10.55
2018-09-01T05:23:15.424Z,10.45
2018-09-01T05:24:15.407Z,10.57
2018-09-01T05:25:15.687Z,10.55
2018-09-01T05:26:15.670Z,10.57
2018-09-01T05:27:15.348Z,10.67
2018-09-01T05:28:15.331Z,10.72
2018-09-01T05:29:15.516Z,10.72
2018-09-01T05:30:15.295Z,10.79
2018-09-01T05:31:15.276Z,10.80
2018-09-01T05:32:15.265Z,10.78
2018-09-01T05:33:15.245Z,10.75
2018-09-01T05:34:15.233Z,10.75
2018-09-01T05:35:15.203Z,10.79
2018-09-01T05:36:15.188Z,10.87
2018-09-01T05:37:15.169Z,10.90
2018-09-01T05:38:15.455Z,10.87
2018-09-01T05:39:15.137Z,10.91
2018-09-01T05:40:15.114Z,10.90
2018-09-01T05:41:15.098Z,10.98
2018-09-01T05:42:15.078Z,10.98
2018-09-01T05:43:15.207Z,11.09
2018-09-01T05:45:15.117Z,11.12
2018-09-01T05:46:15.397Z,11.19
2018-09-01T05:48:14.983Z,11.19
2018-09-01T05:49:15.511Z,11.16
2018-09-01T05:50:14.940Z,11.31
2018-09-01T05:51:14.923Z,11.30
2018-09-01T05:52:14.901Z,11.41
2018-09-01T05:53:15.286Z,11.33
2018-09-01T05:54:14.956Z,11.45
2018-09-01T05:55:14.849Z,11.41
2018-09-01T05:56:14.833Z,11.52
2018-09-01T05:57:14.813Z,11.52
2018-09-01T05:58:14.794Z,11.62
2018-09-01T05:59:15.276Z,11.58
2018-09-01T06:00:15.059Z,11.71
2018-09-01T06:01:14.743Z,11.61
2018-09-01T06:02:14.725Z,11.69
2018-09-01T06:03:14.707Z,11.82
2018-09-01T06:04:14.691Z,11.76
2018-09-01T06:05:14.971Z,11.84
2018-09-01T06:07:14.703Z,11.99
2018-09-01T06:08:14.613Z,12.10
2018-09-01T06:09:14.597Z,12.13
2018-09-01T06:10:14.581Z,12.15
2018-09-01T06:11:14.865Z,12.29
2018-09-01T06:12:14.550Z,12.32
2018-09-01T06:13:14.588Z,12.43
2018-09-01T06:14:14.515Z,12.43
2018-09-01T06:15:14.539Z,12.53
2018-09-01T06:16:14.474Z,12.53
2018-09-01T06:17:14.458Z,12.59
2018-09-01T06:18:14.440Z,12.80
2018-09-01T06:19:14.602Z,12.79
2018-09-01T06:20:14.420Z,12.86
2018-09-01T06:21:14.438Z,12.91
2018-09-01T06:22:14.367Z,12.96
2018-09-01T06:23:14.652Z,13.01
2018-09-01T06:24:14.538Z,13.02
2018-09-01T06:25:14.416Z,13.08
2018-09-01T06:26:14.395Z,13.09
2018-09-01T06:27:14.332Z,13.20
2018-09-01T06:28:14.268Z,13.29
2018-09-01T06:29:14.555Z,13.36
2018-09-01T06:30:14.247Z,13.39
2018-09-01T06:31:14.414Z,13.38
2018-09-01T06:32:14.415Z,13.49
2018-09-01T06:33:14.233Z,13.42
2018-09-01T06:34:14.177Z,13.54
2018-09-01T06:35:14.148Z,13.46
2018-09-01T06:36:14.438Z,13.64
2018-09-01T06:37:14.113Z,13.61
2018-09-01T06:38:14.097Z,13.64
2018-09-01T06:39:14.129Z,13.71
2018-09-01T06:40:14.183Z,13.73
2018-09-01T06:41:14.048Z,13.72
2018-09-01T06:42:14.032Z,13.85
2018-09-01T06:43:15.414Z,13.80
2018-09-01T06:47:14.116Z,14.04
2018-09-01T06:48:13.928Z,14.05
2018-09-01T06:49:14.011Z,14.03
2018-09-01T06:50:14.245Z,14.15
2018-09-01T06:51:13.879Z,14.12
2018-09-01T06:52:13.873Z,14.16
2018-09-01T06:53:13.853Z,14.18
2018-09-01T06:54:33.042Z,14.18
2018-09-01T06:55:14.012Z,14.30
2018-09-01T06:56:13.800Z,14.27
2018-09-01T06:57:14.078Z,14.30
2018-09-01T06:58:14.056Z,14.37
2018-09-01T06:59:13.834Z,14.41
2018-09-01T07:00:13.803Z,14.45
2018-09-01T07:01:14.317Z,14.53
2018-09-01T07:02:13.899Z,14.52
2018-09-01T07:03:13.830Z,14.53
2018-09-01T07:05:13.992Z,14.48
2018-09-01T07:06:13.629Z,14.59
2018-09-01T07:07:13.612Z,14.59
2018-09-01T07:08:13.598Z,14.55
2018-09-01T07:09:13.588Z,14.63
2018-09-01T07:13:13.930Z,14.74
2018-09-01T07:15:13.799Z,14.89
2018-09-01T07:16:13.568Z,14.95
2018-09-01T07:17:13.462Z,14.97
2018-09-01T07:18:13.561Z,15.07
2018-09-01T07:19:13.971Z,15.05
2018-09-01T07:21:15.402Z,15.23
2018-09-01T07:22:13.492Z,15.29
2018-09-01T07:23:13.479Z,15.40
2018-09-01T07:24:13.464Z,15.44
2018-09-01T07:25:13.648Z,15.54
2018-09-01T07:26:14.856Z,15.56
2018-09-01T07:27:13.415Z,15.70
2018-09-01T07:28:13.279Z,15.76
2018-09-01T07:29:14.677Z,15.87
2018-09-01T07:30:13.657Z,15.83
2018-09-01T07:31:13.886Z,15.87
2018-09-01T07:32:13.319Z,15.83
2018-09-01T07:33:13.322Z,15.84
2018-09-01T07:34:13.306Z,16.08
2018-09-01T07:35:13.492Z,16.03
2018-09-01T07:36:13.277Z,16.03
2018-09-01T07:37:13.144Z,16.18
2018-09-01T07:38:13.615Z,16.26
2018-09-01T07:39:13.297Z,16.33
2018-09-01T07:40:13.239Z,16.47
2018-09-01T07:41:13.153Z,16.54
2018-09-01T07:42:13.075Z,16.67
2018-09-01T07:43:13.058Z,16.62
2018-09-01T07:44:13.100Z,16.54
2018-09-01T07:45:13.568Z,16.64
2018-09-01T07:46:13.142Z,16.69
2018-09-01T07:47:13.131Z,16.80
2018-09-01T07:48:13.116Z,16.91
2018-09-01T07:49:13.149Z,17.04
2018-09-01T07:50:13.012Z,17.07
2018-09-01T07:51:12.998Z,17.14
2018-09-01T07:52:13.286Z,17.24
2018-09-01T07:53:12.970Z,17.31
2018-09-01T07:54:12.956Z,17.41
2018-09-01T07:55:13.167Z,17.54
2018-09-01T07:56:16.016Z,17.43
2018-09-01T07:57:13.116Z,17.39
2018-09-01T07:58:12.900Z,17.38
2018-09-01T07:59:13.188Z,17.59
2018-09-01T08:01:13.473Z,17.66
2018-09-01T08:02:12.778Z,17.65
2018-09-01T08:03:12.816Z,17.66
2018-09-01T08:04:12.755Z,17.76
2018-09-01T08:05:15.836Z,18.03
2018-09-01T08:06:13.050Z,18.12
2018-09-01T08:07:12.712Z,18.12
2018-09-01T08:08:12.698Z,18.30
2018-09-01T08:09:12.688Z,18.45
2018-09-01T08:10:13.276Z,18.52
2018-09-01T08:11:12.657Z,18.66
2018-09-01T08:12:12.648Z,18.70
2018-09-01T08:13:12.999Z,18.83
2018-09-01T08:14:12.803Z,19.04
2018-09-01T08:16:12.594Z,19.20
2018-09-01T08:17:12.583Z,19.23
2018-09-01T08:18:12.571Z,19.01
2018-09-01T08:19:12.668Z,19.08
2018-09-01T08:20:12.851Z,19.09
2018-09-01T08:21:12.532Z,19.24
2018-09-01T08:22:12.632Z,19.45
2018-09-01T08:23:12.620Z,19.60
2018-09-01T08:24:12.602Z,19.53
2018-09-01T08:25:12.589Z,19.39
2018-09-01T08:26:13.108Z,19.27
2018-09-01T08:27:12.562Z,19.35
2018-09-01T08:28:12.534Z,19.35
2018-09-01T08:29:12.804Z,19.50
2018-09-01T08:30:12.516Z,19.59
2018-09-01T08:31:12.499Z,19.74
2018-09-01T08:32:12.807Z,19.53
2018-09-01T08:33:12.494Z,19.74
2018-09-01T08:34:12.514Z,19.90
2018-09-01T08:35:12.486Z,20.00
2018-09-01T08:36:12.466Z,20.05
2018-09-01T08:37:13.634Z,20.19
2018-09-01T08:38:12.946Z,20.52
2018-09-01T08:39:13.056Z,20.49
2018-09-01T08:40:12.467Z,20.56
2018-09-01T08:42:12.347Z,20.75
2018-09-01T08:43:12.337Z,20.92
2018-09-01T08:44:12.821Z,20.86
2018-09-01T08:45:12.905Z,20.97
2018-09-01T08:46:45.620Z,21.07
2018-09-01T08:47:38.037Z,21.22
2018-09-01T08:48:12.638Z,21.38
2018-09-01T08:49:12.319Z,21.48
2018-09-01T08:50:15.707Z,21.45
2018-09-01T08:51:13.370Z,21.48
2018-09-01T08:53:13.890Z,21.04
2018-09-01T08:54:12.833Z,21.05
2018-09-01T08:55:15.164Z,20.80
2018-09-01T08:56:15.453Z,20.55
2018-09-01T08:57:12.315Z,20.41
2018-09-01T08:58:12.708Z,20.44
2018-09-01T08:59:12.093Z,20.18
2018-09-01T09:00:13.548Z,20.04
2018-09-01T09:01:12.072Z,19.81
2018-09-01T09:02:18.695Z,19.63
2018-09-01T09:03:12.256Z,19.71
2018-09-01T09:04:12.128Z,19.49
2018-09-01T09:05:12.238Z,19.63
2018-09-01T09:06:12.092Z,19.56
2018-09-01T09:07:12.077Z,19.62
2018-09-01T09:08:18.337Z,19.67
2018-09-01T09:09:12.051Z,19.62
2018-09-01T09:10:11.983Z,19.67
2018-09-01T09:11:12.031Z,19.74
2018-09-01T09:12:12.098Z,19.79
2018-09-01T09:13:13.360Z,19.89
2018-09-01T09:14:11.933Z,19.68
2018-09-01T09:15:15.256Z,19.54
2018-09-01T09:16:11.966Z,19.59
2018-09-01T09:17:11.906Z,19.57
2018-09-01T09:18:11.893Z,19.57
2018-09-01T09:19:11.891Z,19.56
2018-09-01T09:20:12.005Z,19.75
2018-09-01T09:21:11.984Z,19.60
2018-09-01T09:22:12.530Z,19.67
2018-09-01T09:23:11.961Z,19.72
2018-09-01T09:24:13.381Z,19.75
2018-09-01T09:25:11.959Z,19.75
2018-09-01T09:27:11.865Z,20.05
2018-09-01T09:29:12.459Z,21.04
2018-09-01T09:30:12.490Z,21.40
2018-09-01T09:31:11.864Z,21.01
2018-09-01T09:32:18.112Z,20.75
2018-09-01T09:33:11.854Z,20.74
2018-09-01T09:34:11.827Z,20.71
2018-09-01T09:35:11.812Z,21.19
2018-09-01T09:36:11.838Z,21.77
2018-09-01T09:37:11.830Z,21.80
2018-09-01T09:39:12.010Z,21.77
2018-09-01T09:40:12.056Z,21.69
2018-09-01T09:41:14.803Z,21.80
2018-09-01T09:42:11.939Z,21.91
2018-09-01T09:43:11.635Z,22.22
2018-09-01T09:44:11.618Z,22.23
2018-09-01T09:45:11.723Z,22.40
2018-09-01T09:46:11.694Z,22.59
2018-09-01T09:47:11.691Z,22.56
2018-09-01T09:48:12.339Z,22.88
2018-09-01T09:49:11.666Z,22.85
2018-09-01T09:50:11.705Z,22.98
2018-09-01T09:51:11.700Z,22.89
2018-09-01T09:52:11.540Z,23.10
2018-09-01T09:54:11.823Z,23.08
2018-09-01T09:55:11.514Z,22.86
2018-09-01T09:56:11.507Z,22.56
2018-09-01T09:57:11.567Z,22.33
2018-09-01T09:58:11.664Z,22.25
2018-09-01T09:59:11.656Z,22.44
2018-09-01T10:01:11.813Z,22.04
2018-09-01T10:02:11.658Z,21.75
2018-09-01T10:03:11.446Z,21.58
2018-09-01T10:04:11.504Z,21.51
2018-09-01T10:05:11.555Z,21.43
2018-09-01T10:06:11.492Z,21.34
2018-09-01T10:07:11.493Z,21.29
2018-09-01T10:08:11.594Z,22.00
2018-09-01T10:09:11.584Z,22.58
2018-09-01T10:10:12.140Z,22.93
2018-09-01T10:11:11.835Z,23.06
2018-09-01T10:12:11.441Z,23.03
2018-09-01T10:13:11.725Z,23.04
2018-09-01T10:15:11.534Z,22.15
2018-09-01T10:16:11.486Z,21.91
2018-09-01T10:17:11.456Z,21.85
2018-09-01T10:18:11.494Z,21.59
2018-09-01T10:19:11.666Z,21.43
2018-09-01T10:20:11.813Z,21.19
2018-09-01T10:21:11.468Z,21.23
2018-09-01T10:22:11.412Z,21.08
2018-09-01T10:23:14.081Z,20.98
2018-09-01T10:24:11.267Z,21.50
2018-09-01T10:25:11.514Z,22.22
2018-09-01T10:26:11.455Z,22.85
2018-09-01T10:27:11.320Z,23.22
2018-09-01T10:28:11.235Z,23.37
2018-09-01T10:29:11.275Z,23.56
2018-09-01T10:31:11.343Z,23.82
2018-09-01T10:32:12.692Z,24.15
2018-09-01T10:33:11.492Z,24.15
2018-09-01T10:34:14.221Z,24.07
2018-09-01T10:35:11.541Z,24.08
2018-09-01T10:36:11.167Z,23.96
2018-09-01T10:37:11.163Z,24.00
2018-09-01T10:38:11.353Z,24.00
2018-09-01T10:39:11.250Z,24.13
2018-09-01T10:40:12.963Z,24.18
2018-09-01T10:41:11.236Z,24.33
2018-09-01T10:42:11.259Z,24.48
2018-09-01T10:43:11.223Z,24.51
2018-09-01T10:44:23.949Z,24.55
2018-09-01T10:45:11.176Z,24.70
2018-09-01T10:48:11.562Z,24.75
2018-09-01T10:49:11.209Z,24.89
2018-09-01T10:50:11.068Z,24.85
2018-09-01T10:51:11.059Z,24.99
2018-09-01T10:52:11.050Z,25.16
2018-09-01T10:53:11.046Z,25.16
2018-09-01T10:54:11.038Z,24.93
2018-09-01T10:55:11.032Z,24.65
2018-09-01T10:56:11.029Z,24.86
2018-09-01T10:57:11.276Z,24.89
2018-09-01T10:58:11.013Z,24.75
2018-09-01T10:59:11.456Z,24.86
2018-09-01T11:01:12.713Z,25.45
2018-09-01T11:03:36.713Z,25.74
2018-09-01T11:04:10.982Z,25.74
2018-09-01T11:05:10.987Z,25.55
2018-09-01T11:06:11.071Z,25.41
2018-09-01T11:07:11.374Z,25.55
2018-09-01T11:08:11.151Z,25.28
2018-09-01T11:09:11.080Z,25.04
2018-09-01T11:11:11.071Z,25.77
2018-09-01T11:12:11.146Z,25.95
2018-09-01T11:13:11.239Z,25.95
2018-09-01T11:14:11.232Z,25.98
2018-09-01T11:16:11.388Z,26.53
2018-09-01T11:17:11.041Z,26.56
2018-09-01T11:18:11.026Z,26.79
2018-09-01T11:19:11.313Z,26.78
2018-09-01T11:20:11.127Z,26.97
2018-09-01T11:21:10.998Z,26.30
2018-09-01T11:22:10.999Z,25.70
2018-09-01T11:23:11.076Z,25.09
2018-09-01T11:24:11.020Z,24.65
2018-09-01T11:25:12.178Z,24.41
2018-09-01T11:26:11.002Z,24.76
2018-09-01T11:27:11.074Z,25.40
2018-09-01T11:29:10.876Z,25.59
2018-09-01T11:31:10.929Z,26.21
2018-09-01T11:32:11.159Z,26.36
2018-09-01T11:34:10.989Z,26.90
2018-09-01T11:35:14.004Z,26.94
2018-09-01T11:36:17.177Z,27.00
2018-09-01T11:37:10.906Z,27.04
2018-09-01T11:38:10.901Z,27.03
2018-09-01T11:39:11.333Z,27.00
2018-09-01T11:40:10.932Z,26.79
2018-09-01T11:41:10.825Z,26.51
2018-09-01T11:42:11.430Z,26.71
2018-09-01T11:43:11.292Z,27.01
2018-09-01T11:44:10.815Z,27.05
2018-09-01T11:45:10.818Z,27.10
2018-09-01T11:46:11.115Z,27.00
2018-09-01T11:47:10.871Z,26.95
2018-09-01T11:48:10.887Z,27.07
2018-09-01T11:49:10.803Z,26.88
2018-09-01T11:52:11.192Z,27.23
2018-09-01T11:53:11.145Z,26.94
2018-09-01T11:54:10.877Z,26.63
2018-09-01T11:55:10.977Z,26.83
2018-09-01T11:57:10.779Z,27.00
2018-09-01T12:00:10.898Z,27.40
2018-09-01T12:01:10.887Z,27.52
2018-09-01T12:02:11.175Z,27.44
2018-09-01T12:03:17.715Z,27.41
2018-09-01T12:04:10.874Z,27.47
2018-09-01T12:05:11.238Z,27.64
2018-09-01T12:06:11.846Z,27.42
2018-09-01T12:07:10.968Z,27.47
2018-09-01T12:08:10.887Z,27.40
2018-09-01T12:09:12.445Z,27.58
2018-09-01T12:10:11.129Z,27.90
2018-09-01T12:11:11.401Z,28.10
2018-09-01T12:12:12.202Z,28.19
2018-09-01T12:13:11.238Z,28.42
2018-09-01T12:14:10.955Z,27.49
2018-09-01T12:15:10.953Z,27.34
2018-09-01T12:16:10.945Z,27.58
2018-09-01T12:17:10.947Z,27.85
2018-09-01T12:18:10.839Z,28.00
2018-09-01T12:19:10.888Z,27.54
2018-09-01T12:20:12.524Z,27.23
2018-09-01T12:21:10.838Z,27.94
2018-09-01T12:23:10.833Z,28.49
2018-09-01T12:24:10.808Z,28.87
2018-09-01T12:25:10.806Z,28.54
2018-09-01T12:26:11.086Z,27.66
2018-09-01T12:27:10.774Z,27.00
2018-09-01T12:28:10.810Z,26.20
2018-09-01T12:29:10.772Z,25.78
2018-09-01T12:30:10.764Z,25.34
2018-09-01T12:31:10.844Z,25.14
2018-09-01T12:32:10.829Z,24.96
2018-09-01T12:33:10.846Z,24.71
2018-09-01T12:34:10.824Z,24.52
2018-09-01T12:35:10.762Z,24.74
2018-09-01T12:36:10.892Z,24.65
2018-09-01T12:37:10.706Z,24.66
2018-09-01T12:38:10.950Z,25.41
2018-09-01T12:39:10.762Z,26.24
2018-09-01T12:40:10.746Z,26.79
2018-09-01T12:41:10.721Z,27.37
2018-09-01T12:42:10.747Z,27.72
2018-09-01T12:43:10.758Z,27.73
2018-09-01T12:44:11.599Z,27.93
2018-09-01T12:45:10.712Z,28.12
2018-09-01T12:46:36.378Z,28.27
2018-09-01T12:47:10.594Z,28.30
2018-09-01T12:48:11.198Z,28.40
2018-09-01T12:49:10.685Z,28.65
2018-09-01T12:52:11.080Z,27.79
2018-09-01T12:53:10.611Z,27.76
2018-09-01T12:54:10.593Z,27.80
2018-09-01T12:55:10.615Z,28.10
2018-09-01T12:56:11.171Z,28.47
2018-09-01T12:57:10.667Z,28.40
2018-09-01T12:58:10.960Z,28.46
2018-09-01T12:59:10.655Z,28.54
2018-09-01T13:00:10.551Z,27.68
2018-09-01T13:01:10.603Z,27.00
2018-09-01T13:02:10.547Z,27.42
2018-09-01T13:03:10.542Z,27.80
2018-09-01T13:04:10.838Z,28.20
2018-09-01T13:05:10.630Z,28.47
2018-09-01T13:06:10.532Z,28.31
2018-09-01T13:07:10.596Z,28.31
2018-09-01T13:08:10.599Z,28.61
2018-09-01T13:12:10.824Z,28.16
2018-09-01T13:13:10.521Z,27.83
2018-09-01T13:14:10.514Z,27.98
2018-09-01T13:15:10.512Z,27.94
2018-09-01T13:16:10.516Z,27.80
2018-09-01T13:17:10.510Z,28.10
2018-09-01T13:18:10.557Z,28.27
2018-09-01T13:19:10.805Z,28.43
2018-09-01T13:20:10.567Z,28.59
2018-09-01T13:21:10.507Z,28.75
2018-09-01T13:22:10.568Z,28.69
2018-09-01T13:23:10.497Z,28.65
2018-09-01T13:24:10.494Z,28.65
2018-09-01T13:25:10.639Z,28.37
2018-09-01T13:26:11.098Z,28.34
2018-09-01T13:28:23.229Z,28.05
2018-09-01T13:29:10.495Z,28.01
2018-09-01T13:30:11.607Z,28.20
2018-09-01T13:32:14.054Z,28.65
2018-09-01T13:33:10.750Z,28.65
2018-09-01T13:34:10.552Z,28.53
2018-09-01T13:35:10.540Z,27.93
2018-09-01T13:36:10.616Z,27.38
2018-09-01T13:37:10.537Z,27.53
2018-09-01T13:38:10.534Z,28.06
2018-09-01T13:39:10.893Z,28.43
2018-09-01T13:40:10.669Z,28.16
2018-09-01T13:41:10.565Z,28.19
2018-09-01T13:42:10.565Z,28.00
2018-09-01T13:43:13.596Z,27.19
2018-09-01T13:44:10.515Z,26.90
2018-09-01T13:46:11.248Z,27.07
2018-09-01T13:47:10.459Z,27.50
2018-09-01T13:48:10.572Z,27.88
2018-09-01T13:49:10.570Z,28.20
2018-09-01T13:50:10.571Z,28.28
2018-09-01T13:52:10.748Z,28.43
2018-09-01T13:53:10.499Z,28.46
2018-09-01T13:55:10.536Z,28.50
2018-09-01T13:56:10.557Z,28.53
2018-09-01T13:57:10.556Z,28.68
2018-09-01T13:58:10.432Z,28.50
2018-09-01T13:59:10.880Z,28.16
2018-09-01T14:00:10.432Z,28.49
2018-09-01T14:01:10.428Z,28.66
2018-09-01T14:02:10.426Z,28.62
2018-09-01T14:03:10.424Z,28.59
2018-09-01T14:04:10.422Z,28.66
2018-09-01T14:05:11.342Z,28.68
2018-09-01T14:06:10.493Z,28.52
2018-09-01T14:07:10.669Z,28.46
2018-09-01T14:08:11.097Z,28.49